Time,TemperatureF,DewpointF,PressureIn,WindDirection,WindDirectionDegrees,WindSpeedMPH,WindSpeedGustMPH,Humidity,HourlyPrecipIn,Conditions,Clouds,dailyrainin,SolarRadiationWatts/m^2,SoftwareType,DateUTC
2013-07-29 00:10:00,63.7,62.5,29.97,East,89,0.0,0.0,96,0.00,,,0.00,0,Wunderground v.1.15,2013-07-29 04:10:00,
2013-07-29 00:20:00,63.3,62.1,29.97,East,89,0.0,0.0,96,0.00,,,0.00,0,Wunderground v.1.15,2013-07-29 04:20:00,
2013-07-29 00:30:00,62.3,61.1,29.97,East,89,0.0,0.0,96,0.00,,,0.00,0,Wunderground v.1.15,2013-07-29 04:30:00,
2013-07-29 00:40:00,62.0,60.8,29.97,East,89,0.0,0.0,96,0.00,,,0.00,0,Wunderground v.1.15,2013-07-29 04:40:00,
2013-07-29 00:50:00,63.0,62.1,29.97,WSW,246,0.0,0.0,97,0.00,,,0.00,0,Wunderground v.1.15,2013-07-29 04:50:00,
2013-07-29 01:00:00,62.5,61.3,29.98,WSW,246,0.0,0.0,96,0.00,,,0.00,0,Wunderground v.1.15,2013-07-29 05:00:00,
2013-07-29 01:10:00,62.3,61.1,29.98,WSW,246,0.0,0.0,96,0.00,,,0.00,0,Wunderground v.1.15,2013-07-29 05:10:00,
2013-07-29 01:20:00,62.1,61.2,29.99,WSW,246,0.0,0.0,97,0.00,,,0.00,0,Wunderground v.1.15,2013-07-29 05:20:00,
2013-07-29 01:30:00,61.6,60.4,29.98,WSW,246,0.0,0.0,96,0.00,,,0.00,0,Wunderground v.1.15,2013-07-29 05:30:00,
2013-07-29 01:40:00,61.4,60.2,29.99,WSW,246,0.0,0.0,96,0.00,,,0.00,0,Wunderground v.1.15,2013-07-29 05:40:00,
2013-07-29 01:50:00,61.1,60.0,29.99,WSW,246,0.0,0.0,96,0.00,,,0.00,0,Wunderground v.1.15,2013-07-29 05:50:00,
2013-07-29 02:00:00,60.7,59.8,29.99,WSW,246,0.0,0.0,97,0.00,,,0.00,0,Wunderground v.1.15,2013-07-29 06:00:00,
2013-07-29 02:10:00,60.2,59.1,29.99,WSW,246,0.0,0.0,96,0.00,,,0.00,0,Wunderground v.1.15,2013-07-29 06:10:00,
2013-07-29 02:20:00,60.4,59.5,29.99,WSW,246,0.0,0.0,97,0.00,,,0.00,0,Wunderground v.1.15,2013-07-29 06:20:00,
2013-07-29 02:30:00,60.4,59.5,29.99,WSW,246,0.0,0.0,97,0.00,,,0.00,0,Wunderground v.1.15,2013-07-29 06:30:00,
2013-07-29 02:40:00,59.8,58.7,29.99,WSW,246,0.0,0.0,96,0.00,,,0.00,0,Wunderground v.1.15,2013-07-29 06:40:00,
2013-07-29 02:50:00,59.5,58.6,30.00,WSW,246,0.0,0.0,97,0.00,,,0.00,0,Wunderground v.1.15,2013-07-29 06:50:00,
2013-07-29 03:00:00,59.5,58.6,30.00,WSW,246,0.0,0.0,97,0.00,,,0.00,0,Wunderground v.1.15,2013-07-29 07:00:00,
2013-07-29 03:10:00,59.5,58.6,30.00,WSW,246,0.0,0.0,97,0.00,,,0.00,0,Wunderground v.1.15,2013-07-29 07:10:00,
2013-07-29 03:20:00,59.2,58.3,30.00,WSW,246,0.0,0.0,97,0.00,,,0.00,0,Wunderground v.1.15,2013-07-29 07:20:00,
2013-07-29 03:30:00,59.3,58.4,30.00,WSW,246,0.0,0.0,97,0.00,,,0.00,0,Wunderground v.1.15,2013-07-29 07:30:00,
2013-07-29 03:40:00,59.5,58.6,30.01,WSW,246,0.0,0.0,97,0.00,,,0.00,0,Wunderground v.1.15,2013-07-29 07:40:00,
2013-07-29 03:50:00,58.0,56.9,30.01,WSW,246,0.0,0.0,96,0.00,,,0.00,0,Wunderground v.1.15,2013-07-29 07:50:00,
2013-07-29 04:00:00,57.9,57.1,30.01,WSW,246,0.0,0.0,97,0.00,,,0.00,0,Wunderground v.1.15,2013-07-29 08:00:00,
2013-07-29 04:10:00,58.3,57.5,30.01,WSW,246,0.0,0.0,97,0.00,,,0.00,0,Wunderground v.1.15,2013-07-29 08:10:00,
2013-07-29 04:20:00,58.0,57.2,30.01,WSW,246,0.0,0.0,97,0.00,,,0.00,0,Wunderground v.1.15,2013-07-29 08:20:00,
2013-07-29 04:30:00,57.4,56.6,30.01,WSW,246,0.0,0.0,97,0.00,,,0.00,0,Wunderground v.1.15,2013-07-29 08:30:00,
2013-07-29 04:40:00,57.5,56.7,30.01,WSW,246,0.0,0.0,97,0.00,,,0.00,0,Wunderground v.1.15,2013-07-29 08:40:00,
2013-07-29 04:50:00,58.0,57.2,30.02,WSW,246,0.0,0.0,97,0.00,,,0.00,0,Wunderground v.1.15,2013-07-29 08:50:00,
2013-07-29 05:00:00,56.6,55.8,30.02,WSW,246,0.0,0.0,97,0.00,,,0.00,0,Wunderground v.1.15,2013-07-29 09:00:00,
2013-07-29 05:10:00,57.3,56.5,30.02,WSW,246,0.0,0.0,97,0.00,,,0.00,0,Wunderground v.1.15,2013-07-29 09:10:00,
2013-07-29 05:20:00,57.5,56.7,30.02,WSW,246,0.0,0.0,97,0.00,,,0.01,0,Wunderground v.1.15,2013-07-29 09:20:00,
2013-07-29 05:30:00,56.6,55.8,30.03,WSW,246,0.0,0.0,97,0.00,,,0.01,0,Wunderground v.1.15,2013-07-29 09:30:00,
2013-07-29 05:40:00,55.9,55.1,30.03,WSW,246,0.0,0.0,97,0.00,,,0.01,0,Wunderground v.1.15,2013-07-29 09:40:00,
2013-07-29 05:50:00,55.7,54.9,30.03,WNW,288,0.0,0.0,97,0.00,,,0.01,0,Wunderground v.1.15,2013-07-29 09:50:00,
2013-07-29 06:00:00,56.8,56.0,30.03,WNW,288,0.0,0.0,97,0.00,,,0.01,0,Wunderground v.1.15,2013-07-29 10:00:00,
2013-07-29 06:10:00,56.2,55.4,30.04,WNW,288,0.0,0.0,97,0.00,,,0.01,0,Wunderground v.1.15,2013-07-29 10:10:00,
2013-07-29 06:20:00,56.0,55.2,30.04,WNW,288,0.0,0.0,97,0.00,,,0.01,9,Wunderground v.1.15,2013-07-29 10:20:00,
2013-07-29 06:30:00,55.8,55.0,30.05,WNW,288,0.0,0.0,97,0.00,,,0.01,21,Wunderground v.1.15,2013-07-29 10:30:00,
2013-07-29 06:40:00,56.4,55.6,30.05,WNW,288,0.0,0.0,97,0.00,,,0.01,39,Wunderground v.1.15,2013-07-29 10:40:00,
2013-07-29 06:50:00,57.3,56.7,30.05,WNW,288,0.0,0.0,98,0.00,,,0.01,63,Wunderground v.1.15,2013-07-29 10:50:00,
2013-07-29 07:00:00,57.8,57.2,30.05,WNW,288,0.0,0.0,98,0.00,,,0.01,91,Wunderground v.1.15,2013-07-29 11:00:00,
2013-07-29 07:10:00,58.4,57.8,30.06,WNW,288,0.0,0.0,98,0.00,,,0.01,121,Wunderground v.1.15,2013-07-29 11:10:00,
2013-07-29 07:20:00,59.0,58.2,30.05,WNW,288,0.0,0.0,97,0.00,,,0.01,153,Wunderground v.1.15,2013-07-29 11:20:00,
2013-07-29 07:30:00,59.8,58.9,30.06,WNW,288,0.0,0.0,97,0.00,,,0.01,186,Wunderground v.1.15,2013-07-29 11:30:00,
2013-07-29 07:40:00,60.5,59.4,30.06,WNW,287,0.0,0.0,96,0.00,,,0.01,221,Wunderground v.1.15,2013-07-29 11:40:00,
2013-07-29 07:50:00,61.8,60.6,30.06,West,279,0.0,0.0,96,0.00,,,0.01,250,Wunderground v.1.15,2013-07-29 11:50:00,
2013-07-29 08:00:00,63.1,61.0,30.06,West,279,0.0,0.0,93,0.00,,,0.01,283,Wunderground v.1.15,2013-07-29 12:00:00,
2013-07-29 08:20:00,64.8,61.2,30.06,West,279,0.0,0.0,88,0.00,,,0.01,346,Wunderground v.1.15,2013-07-29 12:20:00,
2013-07-29 08:40:00,65.8,60.2,30.07,WSW,254,0.0,0.0,82,0.00,,,0.01,410,Wunderground v.1.15,2013-07-29 12:40:00,
2013-07-29 08:49:00,67.2,61.5,30.07,WSW,249,0.0,0.0,82,0.00,,,0.01,441,Wunderground v.1.15,2013-07-29 12:49:00,
2013-07-29 09:00:00,68.5,61.4,30.07,WSW,250,0.0,0.0,78,0.00,,,0.01,471,Wunderground v.1.15,2013-07-29 13:00:00,
2013-07-29 09:10:00,68.9,61.0,30.07,West,259,0.0,0.0,76,0.00,,,0.01,503,Wunderground v.1.15,2013-07-29 13:10:00,
2013-07-29 09:20:00,70.3,60.8,30.07,West,269,0.0,0.0,72,0.00,,,0.01,538,Wunderground v.1.15,2013-07-29 13:20:00,
2013-07-29 09:30:00,70.8,59.7,30.07,West,271,0.0,0.0,68,0.00,,,0.01,570,Wunderground v.1.15,2013-07-29 13:30:00,
2013-07-29 09:40:00,72.0,60.0,30.07,North,355,0.0,4.0,66,0.00,,,0.01,598,Wunderground v.1.15,2013-07-29 13:40:00,
2013-07-29 09:50:00,72.3,59.4,30.07,West,269,0.0,5.0,64,0.00,,,0.01,629,Wunderground v.1.15,2013-07-29 13:50:00,
2013-07-29 10:00:00,72.6,60.6,30.08,West,275,0.0,0.0,66,0.00,,,0.01,656,Wunderground v.1.15,2013-07-29 14:00:00,
2013-07-29 10:10:00,73.4,60.0,30.07,West,277,0.0,0.0,63,0.00,,,0.01,684,Wunderground v.1.15,2013-07-29 14:10:00,
2013-07-29 10:30:00,73.1,58.8,30.07,NNW,345,1.0,3.0,61,0.00,,,0.01,738,Wunderground v.1.15,2013-07-29 14:30:00,
2013-07-29 10:40:00,73.3,57.1,30.08,North,5,2.0,2.0,57,0.00,,,0.01,761,Wunderground v.1.15,2013-07-29 14:40:00,
2013-07-29 10:50:00,73.9,59.6,30.08,West,279,1.0,1.0,61,0.00,,,0.01,788,Wunderground v.1.15,2013-07-29 14:50:00,
2013-07-29 10:59:00,73.8,59.5,30.07,NNW,329,2.0,2.0,61,0.00,,,0.01,821,Wunderground v.1.15,2013-07-29 14:59:00,
2013-07-29 11:10:00,74.0,59.7,30.08,NW,323,2.0,2.0,61,0.00,,,0.01,831,Wunderground v.1.15,2013-07-29 15:10:00,
2013-07-29 11:20:00,75.1,57.3,30.08,NNW,338,1.0,1.0,54,0.00,,,0.01,846,Wunderground v.1.15,2013-07-29 15:20:00,
2013-07-29 11:30:00,74.6,57.4,30.08,NNW,338,0.0,0.0,55,0.00,,,0.01,904,Wunderground v.1.15,2013-07-29 15:30:00,
2013-07-29 11:40:00,74.5,57.8,30.08,West,265,1.0,1.0,56,0.00,,,0.01,914,Wunderground v.1.15,2013-07-29 15:40:00,
2013-07-29 11:50:00,75.6,57.8,30.08,West,260,2.0,2.0,54,0.00,,,0.01,918,Wunderground v.1.15,2013-07-29 15:50:00,
2013-07-29 12:00:00,75.6,57.3,30.08,West,267,1.0,1.0,53,0.00,,,0.01,940,Wunderground v.1.15,2013-07-29 16:00:00,
2013-07-29 12:10:00,75.7,60.8,30.08,West,267,1.0,1.0,60,0.00,,,0.01,958,Wunderground v.1.15,2013-07-29 16:10:00,
2013-07-29 12:20:00,75.9,57.0,30.07,NNW,333,1.0,1.0,52,0.00,,,0.01,983,Wunderground v.1.15,2013-07-29 16:20:00,
2013-07-29 12:30:00,75.2,58.4,30.07,WSW,254,1.0,1.0,56,0.00,,,0.01,1046,Wunderground v.1.15,2013-07-29 16:30:00,
2013-07-29 12:40:00,75.3,56.5,30.07,WSW,253,0.0,0.0,52,0.00,,,0.01,174,Wunderground v.1.15,2013-07-29 16:40:00,
2013-07-29 12:50:00,76.2,57.8,30.07,West,266,1.0,1.0,53,0.00,,,0.01,847,Wunderground v.1.15,2013-07-29 16:50:00,
2013-07-29 13:00:00,77.8,59.8,30.07,WSW,257,1.0,5.0,54,0.00,,,0.01,1053,Wunderground v.1.15,2013-07-29 17:00:00,
2013-07-29 13:20:00,77.3,57.8,30.08,WSW,257,1.0,1.0,51,0.00,,,0.01,1132,Wunderground v.1.15,2013-07-29 17:20:00,
2013-07-29 13:30:00,76.8,58.9,30.07,WSW,241,2.0,2.0,54,0.00,,,0.01,1027,Wunderground v.1.15,2013-07-29 17:30:00,
2013-07-29 13:40:00,77.6,59.6,30.07,SW,229,1.0,4.0,54,0.00,,,0.01,1085,Wunderground v.1.15,2013-07-29 17:40:00,
2013-07-29 13:50:00,78.4,57.7,30.08,WSW,249,2.0,3.0,49,0.00,,,0.01,1016,Wunderground v.1.15,2013-07-29 17:50:00,
2013-07-29 14:00:00,78.2,59.1,30.08,West,263,1.0,1.0,52,0.00,,,0.01,1013,Wunderground v.1.15,2013-07-29 18:00:00,
2013-07-29 14:10:00,78.2,60.2,30.07,West,259,1.0,1.0,54,0.00,,,0.01,981,Wunderground v.1.15,2013-07-29 18:10:00,
2013-07-29 14:30:00,78.0,56.1,30.08,West,262,1.0,1.0,47,0.00,,,0.01,239,Wunderground v.1.15,2013-07-29 18:30:00,
2013-07-29 14:40:00,78.3,59.8,30.07,WNW,286,0.0,1.0,53,0.00,,,0.01,1000,Wunderground v.1.15,2013-07-29 18:40:00,
2013-07-29 14:50:00,79.4,60.2,30.07,WSW,253,3.0,4.0,52,0.00,,,0.01,990,Wunderground v.1.15,2013-07-29 18:50:00,
2013-07-29 15:00:00,78.8,59.7,30.07,West,266,2.0,2.0,52,0.00,,,0.01,867,Wunderground v.1.15,2013-07-29 19:00:00,
2013-07-29 15:10:00,78.4,58.2,30.07,West,279,2.0,2.0,50,0.00,,,0.01,949,Wunderground v.1.15,2013-07-29 19:10:00,
2013-07-29 15:30:00,80.2,58.1,30.07,WSW,247,2.0,5.0,47,0.00,,,0.01,824,Wunderground v.1.15,2013-07-29 19:30:00,
2013-07-29 15:40:00,80.0,58.5,30.06,West,259,2.0,2.0,48,0.00,,,0.01,821,Wunderground v.1.15,2013-07-29 19:40:00,
2013-07-29 15:50:00,80.0,56.7,30.07,West,275,3.0,3.0,45,0.00,,,0.01,858,Wunderground v.1.15,2013-07-29 19:50:00,
2013-07-29 16:00:00,79.5,58.1,30.07,West,273,2.0,2.0,48,0.00,,,0.01,272,Wunderground v.1.15,2013-07-29 20:00:00,
2013-07-29 16:10:00,80.0,58.0,30.06,West,259,3.0,3.0,47,0.00,,,0.01,745,Wunderground v.1.15,2013-07-29 20:10:00,
2013-07-29 16:20:00,79.0,57.6,30.06,NNW,333,1.0,3.0,48,0.00,,,0.01,735,Wunderground v.1.15,2013-07-29 20:20:00,
2013-07-29 16:30:00,79.4,58.0,30.06,WSW,254,2.0,4.0,48,0.00,,,0.01,657,Wunderground v.1.15,2013-07-29 20:30:00,
2013-07-29 16:40:00,79.5,58.7,30.06,West,271,1.0,2.0,49,0.00,,,0.01,622,Wunderground v.1.15,2013-07-29 20:40:00,
2013-07-29 16:50:00,78.7,57.4,30.06,West,272,1.0,1.0,48,0.00,,,0.01,643,Wunderground v.1.15,2013-07-29 20:50:00,
2013-07-29 17:00:00,80.0,59.1,30.05,NW,317,1.0,2.0,49,0.00,,,0.01,606,Wunderground v.1.15,2013-07-29 21:00:00,
2013-07-29 17:10:00,79.2,58.4,30.06,NW,309,1.0,1.0,49,0.00,,,0.01,635,Wunderground v.1.15,2013-07-29 21:10:00,
2013-07-29 17:20:00,79.7,57.7,30.06,West,267,1.0,1.0,47,0.00,,,0.01,592,Wunderground v.1.15,2013-07-29 21:20:00,
2013-07-29 17:50:00,79.6,57.6,30.06,West,273,2.0,2.0,47,0.00,,,0.01,406,Wunderground v.1.15,2013-07-29 21:50:00,
2013-07-29 18:00:00,79.1,57.7,30.06,West,261,2.0,2.0,48,0.00,,,0.01,397,Wunderground v.1.15,2013-07-29 22:00:00,
2013-07-29 18:10:00,79.0,56.5,30.06,West,278,1.0,1.0,46,0.00,,,0.01,357,Wunderground v.1.15,2013-07-29 22:10:00,
2013-07-29 18:30:00,78.6,57.8,30.07,NNW,340,1.0,2.0,49,0.00,,,0.01,227,Wunderground v.1.15,2013-07-29 22:30:00,
2013-07-29 18:40:00,78.1,57.9,30.07,West,263,1.0,1.0,50,0.00,,,0.01,58,Wunderground v.1.15,2013-07-29 22:40:00,
2013-07-29 18:50:00,78.0,57.9,30.07,West,267,0.0,0.0,50,0.00,,,0.01,225,Wunderground v.1.15,2013-07-29 22:50:00,
2013-07-29 19:00:00,78.0,57.3,30.08,West,273,0.0,0.0,49,0.00,,,0.01,53,Wunderground v.1.15,2013-07-29 23:00:00,
2013-07-29 19:20:00,77.0,58.0,30.08,West,268,0.0,0.0,52,0.00,,,0.01,69,Wunderground v.1.15,2013-07-29 23:20:00,
2013-07-29 19:30:00,76.5,57.6,30.09,West,267,0.0,0.0,52,0.00,,,0.01,44,Wunderground v.1.15,2013-07-29 23:30:00,
2013-07-29 19:40:00,75.7,57.9,30.09,WSW,242,0.0,0.0,54,0.00,,,0.01,28,Wunderground v.1.15,2013-07-29 23:40:00,
2013-07-29 19:50:00,74.8,58.1,30.09,WSW,241,0.0,0.0,56,0.00,,,0.01,28,Wunderground v.1.15,2013-07-29 23:50:00,
2013-07-29 20:00:00,74.2,58.5,30.09,WSW,242,0.0,0.0,58,0.00,,,0.01,19,Wunderground v.1.15,2013-07-30 00:00:00,
2013-07-29 20:20:00,70.7,60.0,30.10,WSW,241,0.0,0.0,69,0.00,,,0.01,5,Wunderground v.1.15,2013-07-30 00:20:00,
2013-07-29 20:30:00,69.1,59.3,30.10,WSW,241,0.0,0.0,71,0.00,,,0.01,0,Wunderground v.1.15,2013-07-30 00:30:00,
2013-07-29 20:40:00,67.9,59.7,30.11,WSW,242,0.0,0.0,75,0.00,,,0.01,0,Wunderground v.1.15,2013-07-30 00:40:00,
2013-07-29 21:00:00,66.5,59.4,30.11,WSW,242,0.0,0.0,78,0.00,,,0.01,0,Wunderground v.1.15,2013-07-30 01:00:00,
2013-07-29 21:10:00,66.1,59.4,30.11,WSW,241,0.0,0.0,79,0.00,,,0.01,0,Wunderground v.1.15,2013-07-30 01:10:00,
2013-07-29 21:20:00,65.3,59.0,30.11,WSW,241,0.0,0.0,80,0.00,,,0.01,0,Wunderground v.1.15,2013-07-30 01:20:00,
2013-07-29 21:40:00,64.3,59.4,30.12,WSW,242,0.0,0.0,84,0.00,,,0.01,0,Wunderground v.1.15,2013-07-30 01:40:00,
2013-07-29 21:50:00,64.6,59.7,30.13,WSW,241,0.0,0.0,84,0.00,,,0.01,0,Wunderground v.1.15,2013-07-30 01:50:00,
2013-07-29 22:00:00,65.0,60.0,30.13,WSW,241,0.0,0.0,84,0.00,,,0.01,0,Wunderground v.1.15,2013-07-30 02:00:00,
2013-07-29 22:10:00,65.2,60.6,30.14,WSW,242,0.0,0.0,85,0.00,,,0.01,0,Wunderground v.1.15,2013-07-30 02:10:00,
2013-07-29 22:20:00,65.1,60.5,30.14,WSW,242,0.0,0.0,85,0.00,,,0.01,0,Wunderground v.1.15,2013-07-30 02:20:00,
2013-07-29 22:30:00,65.4,60.4,30.14,WSW,241,0.0,0.0,84,0.00,,,0.01,0,Wunderground v.1.15,2013-07-30 02:30:00,
2013-07-29 22:50:00,65.9,59.6,30.14,WSW,241,0.0,0.0,80,0.00,,,0.01,0,Wunderground v.1.15,2013-07-30 02:50:00,
2013-07-29 23:10:00,64.0,60.1,30.14,WSW,241,0.0,0.0,87,0.00,,,0.01,0,Wunderground v.1.15,2013-07-30 03:10:00,
2013-07-29 23:20:00,63.1,59.5,30.14,WSW,241,0.0,0.0,88,0.00,,,0.01,0,Wunderground v.1.15,2013-07-30 03:20:00,
2013-07-29 23:30:00,62.6,59.6,30.14,WSW,241,0.0,0.0,90,0.00,,,0.01,0,Wunderground v.1.15,2013-07-30 03:30:00,
2013-07-29 23:40:00,62.9,59.3,30.13,WSW,241,0.0,0.0,88,0.00,,,0.01,0,Wunderground v.1.15,2013-07-30 03:40:00,
2013-07-29 23:50:00,63.2,59.3,30.14,WSW,241,0.0,0.0,87,0.00,,,0.01,0,Wunderground v.1.15,2013-07-30 03:50:00,